Upper Valley, Nevada
Current Conditions -  °F | °C
As of 2:53 PM on Friday 19 Dec 2014 (Local Time) from KLOL Reporting Station
Light Rain Light Rain  
Wind Chill: 38°   Ceiling: 4300
Heat Index: 43°   Visibility: 10mi
Dew Point: 34°   Wind: 8mph
Humidity: 71%   Direction: 110°ESE
Pressure: 30.11"   Gusts: NA
Location:  40.3545°N, 118.628°W
Report Text: KLOL 192253Z AUTO 11007KT 10SM -RA BKN043 BKN055 OVC070 06/01 A3011 RMK AO2 RAB07 SLP209 P0000 T00610011
Loading
Personal Weather Stations






























Interactive Weather Map New forecast layout! Learn more

10-Day Weather Forecast

Advertisements
Track Severe Weather on mobile